Kezdőlap
METAR-TAF:

METAR-TAF

Repülőterek :

Searle Field

Ogallala, Nebraska, Amerikai Egyesült Államok

földrajzi szélesség: 41-07-11N, földrajzi hosszúság: 101-46-08W, magasság: 999 m

Jelenlegi meteorológiai megfigyelések

A jelentés 23 perccel ezelõtt készült, 03:35 UTC
Nyugat-délnyugati szél 4 kt
Hőmérséklet 28°C
Páratartalom 37%
Légköri nyomás 1012 hPa
Látótávolság: 16.1 km
Derült ég

METAR: KOGA 130335Z AUTO 25004KT 10SM CLR 28/12 A2989 RMK AO2 T02780118

Idő: 21:58 (03:58 UTC)


TAF: hiányzik

Meteorológiai megfigyelések és előrejelzések több, mint 4000 repülőtéren (METAR és TAF jelentéseket).

A térképen piros és sárga pontok jelzik az elérhető meteorológiai állomásokat.

Mozgassa az egeret a pont fölött, hogy megjelenjen az állomás neve.

Azután kattintson az időjárási megfigyelések és előrejelzések megtekintéséhez.

A térkép megváltoztatása: kattintson a fekete keresztel jelölt zöld gombra ráközelítéshez, a vonallal jelölt zöld gombra távolításhoz, vagy a zöld nyilakra a szomszédos térképek eléréséhez.


METAR-TAF: